Time;durP1;ratioP1;P1;durP2;ratioP2;P2;SDS_P1;SDS_P2;PMS_P1;PMS_P2;Temp;Humidity;BMP_temperature;BMP_pressure;BME280_temperature;BME280_humidity;BME280_pressure;Samples;Min_cycle;Max_cycle;Signal;HPM_P1;HPM_P2
2023/01/25 00:01:52;;;;;;;40.65;22.35;;;;;;;0.34;100.00;97298.53;5089914;28;24482;-72
2023/01/25 00:04:19;;;;;;;30.33;20.50;;;;;;;0.22;100.00;97301.91;5091644;28;24808;-73
2023/01/25 00:06:46;;;;;;;40.53;21.77;;;;;;;0.21;100.00;97292.53;5096210;28;24985;-73
2023/01/25 00:09:13;;;;;;;39.88;22.08;;;;;;;-0.01;100.00;97294.19;5095625;28;24511;-73
2023/01/25 00:11:39;;;;;;;24.50;20.25;;;;;;;-0.05;100.00;97286.53;5097919;28;24442;-72
2023/01/25 00:14:06;;;;;;;47.22;21.63;;;;;;;0.00;100.00;97287.41;5091993;28;24471;-72
2023/01/25 00:16:33;;;;;;;29.83;20.43;;;;;;;0.11;100.00;97282.31;5098156;28;24437;-72
2023/01/25 00:19:01;;;;;;;34.45;20.08;;;;;;;0.21;100.00;97287.44;5099269;28;24434;-72
2023/01/25 00:21:27;;;;;;;33.83;21.45;;;;;;;0.13;100.00;97284.03;5101995;28;24437;-71
2023/01/25 00:23:54;;;;;;;26.85;20.75;;;;;;;0.02;100.00;97284.88;5097516;28;24440;-72
2023/01/25 00:26:21;;;;;;;26.38;21.10;;;;;;;-0.03;100.00;97282.31;5098713;28;24437;-72
2023/01/25 00:28:49;;;;;;;29.17;22.23;;;;;;;0.02;100.00;97278.06;5097706;28;24448;-72
2023/01/25 00:31:21;;;;;;;29.85;21.33;;;;;;;0.07;100.00;97276.38;5105944;28;25001;-72
2023/01/25 00:33:52;;;;;;;34.28;22.02;;;;;;;0.27;100.00;97281.53;5102766;28;24462;-73
2023/01/25 00:36:34;;;;;;;29.85;22.98;;;;;;;0.11;100.00;97265.38;5091302;28;24437;-72
2023/01/25 00:39:00;;;;;;;24.15;20.80;;;;;;;-0.01;100.00;97262.78;5086942;28;24823;-72
2023/01/25 00:41:27;;;;;;;26.65;21.23;;;;;;;0.20;100.00;97260.28;5090880;28;24464;-72
2023/01/25 00:43:54;;;;;;;26.85;22.75;;;;;;;0.11;100.00;97254.31;5104275;28;24439;-72
2023/01/25 00:46:20;;;;;;;26.75;21.23;;;;;;;0.06;100.00;97256.00;5094309;28;24453;-72
2023/01/25 00:48:47;;;;;;;37.13;22.35;;;;;;;0.23;100.00;97252.66;5106840;28;24445;-72
2023/01/25 00:51:14;;;;;;;25.08;21.38;;;;;;;0.18;100.00;97263.66;5101315;28;24438;-72
2023/01/25 00:53:42;;;;;;;23.50;21.02;;;;;;;0.16;100.00;97262.81;5089222;28;24494;-72
2023/01/25 00:56:08;;;;;;;31.67;21.77;;;;;;;0.14;100.00;97247.53;5096888;28;25048;-72
2023/01/25 00:58:35;;;;;;;27.80;21.38;;;;;;;0.12;100.00;97261.13;5083178;28;24994;-73
2023/01/25 01:01:01;;;;;;;41.72;22.08;;;;;;;0.19;100.00;97253.50;5101569;28;25022;-73
2023/01/25 01:03:28;;;;;;;27.83;20.88;;;;;;;0.14;100.00;97269.59;5093969;28;24437;-73
2023/01/25 01:06:06;;;;;;;31.83;22.50;;;;;;;0.23;100.00;97267.94;5101518;28;24433;-72
2023/01/25 01:08:35;;;;;;;42.42;23.23;;;;;;;0.31;100.00;97270.50;5095864;28;24795;-72
2023/01/25 01:11:05;;;;;;;44.42;22.00;;;;;;;0.13;100.00;97263.66;5097113;28;24472;-72
2023/01/25 01:13:31;;;;;;;38.90;21.50;;;;;;;0.30;100.00;97255.19;5098327;28;24453;-73
2023/01/25 01:16:01;;;;;;;47.15;22.27;;;;;;;0.40;100.00;97251.81;5094235;28;24441;-73
2023/01/25 01:18:28;;;;;;;29.20;22.10;;;;;;;0.18;100.00;97244.13;5100005;28;24795;-73
2023/01/25 01:20:55;;;;;;;27.48;20.45;;;;;;;0.03;100.00;97246.66;5098919;28;25010;-72
2023/01/25 01:23:21;;;;;;;29.00;20.60;;;;;;;-0.02;100.00;97243.25;5103492;28;24441;-72
2023/01/25 01:25:48;;;;;;;37.08;20.88;;;;;;;0.04;100.00;97250.03;5099839;28;24438;-73
2023/01/25 01:28:15;;;;;;;40.38;20.92;;;;;;;0.11;100.00;97252.63;5092685;28;24426;-72
2023/01/25 01:30:42;;;;;;;30.13;20.95;;;;;;;0.01;100.00;97257.69;5106041;28;24434;-73
2023/01/25 01:33:08;;;;;;;39.35;21.38;;;;;;;-0.06;100.00;97254.28;5098393;28;24445;-73
2023/01/25 01:35:35;;;;;;;32.75;22.95;;;;;;;-0.04;100.00;97256.00;5090784;28;24458;-73
2023/01/25 01:38:01;;;;;;;27.10;21.52;;;;;;;0.13;100.00;97248.38;5103478;28;24448;-72
2023/01/25 01:40:28;;;;;;;36.33;22.02;;;;;;;0.24;100.00;97253.50;5098607;28;24983;-72
2023/01/25 01:43:00;;;;;;;32.53;20.93;;;;;;;0.02;100.00;97249.19;5101673;28;24445;-72
2023/01/25 01:45:53;;;;;;;28.95;22.00;;;;;;;-0.09;100.00;97250.03;5083582;28;24442;-72
2023/01/25 01:48:27;;;;;;;30.88;20.83;;;;;;;0.03;100.00;97251.75;5098685;28;24796;-72
2023/01/25 01:50:58;;;;;;;29.58;22.70;;;;;;;0.18;100.00;97254.31;5093710;28;24452;-71
2023/01/25 01:53:26;;;;;;;29.83;22.20;;;;;;;0.12;100.00;97251.78;5088304;28;24437;-72
2023/01/25 01:55:57;;;;;;;25.23;22.05;;;;;;;0.08;100.00;97250.06;5098315;28;24464;-72
2023/01/25 01:58:23;;;;;;;29.92;22.30;;;;;;;0.17;100.00;97252.63;5084969;28;24429;-72
2023/01/25 02:00:51;;;;;;;25.40;22.55;;;;;;;0.17;100.00;97244.97;5107086;28;24996;-72
2023/01/25 02:03:19;;;;;;;28.05;22.38;;;;;;;0.06;100.00;97248.38;5090583;28;24461;-72
2023/01/25 02:05:49;;;;;;;30.17;21.83;;;;;;;0.13;100.00;97244.97;5098731;28;24438;-73
2023/01/25 02:08:16;;;;;;;38.95;23.05;;;;;;;-0.03;100.00;97251.75;5092102;28;24448;-72
2023/01/25 02:10:44;;;;;;;30.52;21.55;;;;;;;0.06;100.00;97249.22;5087269;28;24430;-72
2023/01/25 02:13:10;;;;;;;33.70;22.65;;;;;;;0.02;100.00;97250.06;5094490;28;24434;-71
2023/01/25 02:15:40;;;;;;;34.63;22.88;;;;;;;0.17;100.00;97242.44;5099411;28;24450;-72
2023/01/25 02:18:09;;;;;;;29.30;22.20;;;;;;;0.26;100.00;97244.16;5095372;28;24730;-72
2023/01/25 02:20:38;;;;;;;36.30;23.73;;;;;;;0.15;100.00;97240.72;5097290;28;24994;-73
2023/01/25 02:23:14;;;;;;;26.02;22.50;;;;;;;0.20;100.00;97241.59;5093775;28;24441;-73
2023/01/25 02:25:42;;;;;;;28.55;22.55;;;;;;;0.12;100.00;97240.75;5102155;28;24986;-73
2023/01/25 02:28:14;;;;;;;31.30;21.92;;;;;;;0.06;100.00;97233.94;5095883;28;25041;-73
2023/01/25 02:30:42;;;;;;;33.03;23.48;;;;;;;-0.01;100.00;97243.25;5108327;28;24433;-73
2023/01/25 02:33:09;;;;;;;35.03;22.87;;;;;;;-0.02;100.00;97235.59;5092241;28;24438;-72
2023/01/25 02:35:41;;;;;;;33.60;22.42;;;;;;;0.02;100.00;97228.81;5088884;28;24453;-72
2023/01/25 02:38:11;;;;;;;37.53;22.88;;;;;;;-0.05;100.00;97238.16;5094243;28;24438;-72
2023/01/25 02:40:44;;;;;;;41.80;22.67;;;;;;;0.22;100.00;97230.56;5094296;28;24434;-72
2023/01/25 02:43:11;;;;;;;32.70;22.42;;;;;;;0.05;100.00;97232.22;5098622;28;25038;-72
2023/01/25 02:45:38;;;;;;;35.85;22.15;;;;;;;0.04;100.00;97227.13;5095244;28;24438;-73
2023/01/25 02:48:05;;;;;;;26.70;22.20;;;;;;;-0.16;100.00;97229.63;5096848;28;24438;-72
2023/01/25 02:50:31;;;;;;;36.27;22.00;;;;;;;0.16;100.00;97230.56;5097442;28;24814;-72
2023/01/25 02:52:58;;;;;;;39.10;22.00;;;;;;;0.00;100.00;97228.84;5084668;28;24441;-73
2023/01/25 02:55:24;;;;;;;33.78;22.45;;;;;;;0.04;100.00;97227.13;5094864;28;24450;-72
2023/01/25 02:57:52;;;;;;;36.33;22.00;;;;;;;0.28;100.00;97229.72;5087384;28;24801;-73
2023/01/25 03:00:19;;;;;;;31.17;22.63;;;;;;;0.40;100.00;97232.25;5096965;28;24447;-72
2023/01/25 03:02:45;;;;;;;34.67;22.10;;;;;;;0.14;100.00;97224.59;5086308;28;24441;-72
2023/01/25 03:05:12;;;;;;;38.75;21.05;;;;;;;0.04;100.00;97222.03;5094708;28;24441;-71
2023/01/25 03:07:39;;;;;;;36.17;22.03;;;;;;;-0.11;100.00;97217.75;5091837;28;24445;-72
2023/01/25 03:10:06;;;;;;;34.37;22.20;;;;;;;0.00;100.00;97213.56;5090469;28;24441;-72
2023/01/25 03:12:32;;;;;;;27.27;21.10;;;;;;;-0.10;100.00;97217.78;5089407;28;24442;-72
2023/01/25 03:15:00;;;;;;;26.10;20.48;;;;;;;-0.03;100.00;97206.75;5097549;28;24449;-72
2023/01/25 03:17:26;;;;;;;27.48;21.88;;;;;;;0.01;100.00;97201.66;5094451;28;24487;-72
2023/01/25 03:19:53;;;;;;;29.27;22.23;;;;;;;-0.09;100.00;97203.34;5098040;28;24429;-72
2023/01/25 03:22:20;;;;;;;26.63;22.40;;;;;;;0.03;100.00;97200.78;5096982;28;24528;-72
2023/01/25 03:24:46;;;;;;;24.40;20.52;;;;;;;-0.04;100.00;97191.44;5098225;28;25140;-72
2023/01/25 03:27:15;;;;;;;27.38;21.88;;;;;;;0.01;100.00;97186.38;5098141;28;24990;-72
2023/01/25 03:29:42;;;;;;;25.17;21.35;;;;;;;0.12;100.00;97192.34;5092964;28;24455;-73
2023/01/25 03:32:10;;;;;;;24.58;21.80;;;;;;;-0.04;100.00;97192.31;5102005;28;24978;-71
2023/01/25 03:34:36;;;;;;;26.05;20.88;;;;;;;-0.11;100.00;97188.06;5091734;28;24473;-72
2023/01/25 03:37:03;;;;;;;26.57;22.17;;;;;;;0.04;100.00;97188.91;5088540;28;24516;-72
2023/01/25 03:39:30;;;;;;;28.55;21.63;;;;;;;0.02;100.00;97186.38;5098225;28;24979;-72
2023/01/25 03:41:56;;;;;;;26.27;20.85;;;;;;;0.01;100.00;97184.69;5091917;28;24464;-72
2023/01/25 03:44:23;;;;;;;26.25;21.60;;;;;;;-0.04;100.00;97184.69;5099157;28;24441;-72
2023/01/25 03:46:49;;;;;;;27.40;21.15;;;;;;;0.08;100.00;97188.94;5089273;28;24441;-72
2023/01/25 03:49:18;;;;;;;24.40;21.40;;;;;;;0.01;100.00;97183.84;5101129;28;24790;-72
2023/01/25 03:51:44;;;;;;;26.20;20.83;;;;;;;-0.08;100.00;97180.41;5090351;28;24894;-73
2023/01/25 03:54:11;;;;;;;27.55;21.23;;;;;;;-0.07;100.00;97183.81;5091635;28;24480;-73
2023/01/25 03:56:38;;;;;;;27.75;21.30;;;;;;;0.04;100.00;97187.25;5095333;28;24877;-72
2023/01/25 03:59:04;;;;;;;26.43;21.40;;;;;;;-0.01;100.00;97186.38;5092862;28;24983;-73
2023/01/25 04:01:31;;;;;;;27.88;19.80;;;;;;;-0.07;100.00;97188.91;5100543;28;24434;-73
2023/01/25 04:03:57;;;;;;;29.92;21.85;;;;;;;0.07;100.00;97186.38;5092265;28;24444;-72
2023/01/25 04:06:25;;;;;;;23.67;20.48;;;;;;;0.12;100.00;97183.00;5100484;28;24426;-73
2023/01/25 04:08:52;;;;;;;26.00;20.73;;;;;;;-0.01;100.00;97187.22;5087361;28;25011;-72
2023/01/25 04:11:18;;;;;;;28.15;21.23;;;;;;;0.31;100.00;97186.41;5099641;28;24441;-72
2023/01/25 04:13:44;;;;;;;28.02;21.15;;;;;;;0.24;100.00;97185.53;5092860;28;24438;-73
2023/01/25 04:16:11;;;;;;;24.40;20.73;;;;;;;0.36;100.00;97184.69;5100425;28;24450;-72
2023/01/25 04:18:38;;;;;;;23.90;20.45;;;;;;;0.13;100.00;97186.38;5095073;28;24916;-73
2023/01/25 04:21:05;;;;;;;29.00;20.17;;;;;;;0.32;100.00;97182.16;5098639;28;24429;-73
2023/01/25 04:23:33;;;;;;;21.73;19.50;;;;;;;0.03;100.00;97184.66;5107446;28;24795;-72
2023/01/25 04:26:02;;;;;;;24.20;19.45;;;;;;;-0.11;100.00;97175.34;5097348;28;24441;-73
2023/01/25 04:28:28;;;;;;;23.00;18.58;;;;;;;-0.10;100.00;97171.09;5099013;28;24995;-72
2023/01/25 04:30:56;;;;;;;20.10;17.80;;;;;;;-0.05;100.00;97170.22;5110607;28;24433;-72
2023/01/25 04:33:23;;;;;;;22.38;18.98;;;;;;;0.08;100.00;97180.44;5097695;28;24442;-72
2023/01/25 04:35:50;;;;;;;23.00;18.25;;;;;;;0.23;100.00;97175.34;5092774;28;24449;-72
2023/01/25 04:38:17;;;;;;;20.70;17.50;;;;;;;0.07;100.00;97169.38;5099038;28;24461;-72
2023/01/25 04:40:45;;;;;;;20.58;18.27;;;;;;;0.34;100.00;97171.13;5100123;28;24433;-72
2023/01/25 04:43:13;;;;;;;22.50;18.27;;;;;;;0.08;100.00;97167.72;5092002;28;24445;-73
2023/01/25 04:45:39;;;;;;;22.90;18.67;;;;;;;0.00;100.00;97167.72;5092789;28;24461;-72
2023/01/25 04:48:08;;;;;;;21.58;18.65;;;;;;;0.12;100.00;97167.72;5103958;28;24441;-73
2023/01/25 04:50:35;;;;;;;22.33;18.10;;;;;;;0.02;100.00;97168.53;5102570;28;25052;-72
2023/01/25 04:53:02;;;;;;;22.87;18.40;;;;;;;0.20;100.00;97166.00;5099252;28;24838;-72
2023/01/25 04:55:28;;;;;;;20.20;17.55;;;;;;;0.20;100.00;97176.19;5095457;28;24991;-73
2023/01/25 04:57:56;;;;;;;20.92;18.08;;;;;;;0.13;100.00;97171.09;5093227;28;25026;-72
2023/01/25 05:00:23;;;;;;;20.93;17.03;;;;;;;0.10;100.00;97173.63;5099111;28;24848;-71
2023/01/25 05:02:49;;;;;;;19.15;17.13;;;;;;;0.17;100.00;97173.66;5096345;28;24834;-72
2023/01/25 05:05:16;;;;;;;21.73;17.70;;;;;;;0.28;100.00;97163.47;5093585;28;24433;-72
2023/01/25 05:07:43;;;;;;;23.27;18.90;;;;;;;0.43;100.00;97160.91;5090820;28;24434;-77
2023/01/25 05:10:11;;;;;;;19.93;17.87;;;;;;;0.12;100.00;97154.97;5095161;28;24700;-72
2023/01/25 05:12:38;;;;;;;20.08;18.05;;;;;;;0.08;100.00;97150.72;5096071;28;24442;-72
2023/01/25 05:15:07;;;;;;;19.70;16.42;;;;;;;0.03;100.00;97149.00;5082095;28;24807;-72
2023/01/25 05:17:34;;;;;;;22.13;16.98;;;;;;;0.15;100.00;97152.44;5090376;28;24979;-71
2023/01/25 05:20:00;;;;;;;20.17;17.50;;;;;;;0.06;100.00;97152.41;5097050;28;24441;-72
2023/01/25 05:22:27;;;;;;;19.85;17.40;;;;;;;0.11;100.00;97157.50;5090152;28;24984;-72
2023/01/25 05:24:53;;;;;;;19.67;17.55;;;;;;;0.23;100.00;97158.38;5090424;28;24436;-72
2023/01/25 05:27:19;;;;;;;20.33;18.13;;;;;;;0.02;100.00;97153.25;5088340;28;24449;-71
2023/01/25 05:29:46;;;;;;;21.38;17.23;;;;;;;-0.06;100.00;97152.41;5086198;28;24426;-71
2023/01/25 05:32:17;;;;;;;22.23;18.40;;;;;;;-0.06;100.00;97149.88;5092226;28;24982;-72
2023/01/25 05:34:44;;;;;;;23.98;19.38;;;;;;;0.16;100.00;97158.38;5101724;28;24437;-73
2023/01/25 05:37:13;;;;;;;20.60;17.20;;;;;;;-0.03;100.00;97153.25;5099016;28;25010;-72
2023/01/25 05:39:39;;;;;;;23.75;18.33;;;;;;;0.22;100.00;97164.31;5088242;28;24446;-72
2023/01/25 05:42:11;;;;;;;22.95;17.55;;;;;;;-0.02;100.00;97156.66;5087918;28;24446;-72
2023/01/25 05:44:37;;;;;;;22.55;17.65;;;;;;;-0.03;100.00;97154.97;5088848;28;24523;-72
2023/01/25 05:47:04;;;;;;;25.23;18.55;;;;;;;0.16;100.00;97160.91;5089168;28;24434;-72
2023/01/25 05:49:32;;;;;;;25.67;18.00;;;;;;;0.07;100.00;97155.81;5089599;28;24431;-72
2023/01/25 05:51:58;;;;;;;22.83;17.45;;;;;;;-0.02;100.00;97156.66;5080766;28;25157;-72
2023/01/25 05:54:25;;;;;;;22.05;18.52;;;;;;;0.11;100.00;97155.81;5084443;28;24984;-72
2023/01/25 05:56:51;;;;;;;24.50;18.80;;;;;;;0.19;100.00;97151.56;5081537;28;24449;-72
2023/01/25 05:59:18;;;;;;;21.63;18.70;;;;;;;0.14;100.00;97155.81;5085952;28;24441;-72
2023/01/25 06:01:44;;;;;;;23.23;18.85;;;;;;;-0.01;100.00;97154.09;5089487;28;24434;-72
2023/01/25 06:04:14;;;;;;;21.48;18.88;;;;;;;0.15;100.00;97146.47;5088898;28;25005;-71
2023/01/25 06:06:41;;;;;;;24.70;18.90;;;;;;;0.15;100.00;97156.66;5094305;28;24430;-73
2023/01/25 06:09:10;;;;;;;19.50;17.40;;;;;;;0.01;100.00;97151.56;5088245;28;24453;-73
2023/01/25 06:11:36;;;;;;;20.10;17.10;;;;;;;0.01;100.00;97146.47;5100277;28;24446;-73
2023/01/25 06:14:03;;;;;;;22.88;18.80;;;;;;;0.05;100.00;97143.06;5086026;28;24939;-73
2023/01/25 06:16:29;;;;;;;23.63;17.75;;;;;;;-0.07;100.00;97140.53;5091592;28;24453;-72
2023/01/25 06:18:56;;;;;;;23.70;18.70;;;;;;;-0.07;100.00;97140.53;5092427;28;24567;-73
2023/01/25 06:21:22;;;;;;;20.75;17.33;;;;;;;-0.04;100.00;97143.06;5099502;28;24437;-72
2023/01/25 06:23:50;;;;;;;20.17;17.42;;;;;;;0.33;100.00;97137.97;5093984;28;24434;-73
2023/01/25 06:26:17;;;;;;;21.67;18.33;;;;;;;0.22;100.00;97133.75;5091703;28;24437;-73
2023/01/25 06:28:43;;;;;;;21.23;17.45;;;;;;;0.41;100.00;97136.28;5090087;28;24430;-73
2023/01/25 06:31:12;;;;;;;18.53;16.33;;;;;;;0.25;100.00;97135.41;5101607;28;24430;-72
2023/01/25 06:33:39;;;;;;;24.02;17.23;;;;;;;0.33;100.00;97132.88;5091907;28;24965;-73
2023/01/25 06:36:09;;;;;;;22.33;17.45;;;;;;;0.16;100.00;97131.19;5101014;28;24700;-73
2023/01/25 06:38:36;;;;;;;21.25;16.83;;;;;;;0.04;100.00;97127.78;5094477;28;24426;-73
2023/01/25 06:41:06;;;;;;;22.52;17.80;;;;;;;0.01;100.00;97132.91;5092117;28;24437;-72
2023/01/25 06:43:34;;;;;;;20.60;17.02;;;;;;;0.08;100.00;97132.91;5096747;28;24442;-71
2023/01/25 06:46:01;;;;;;;21.90;17.20;;;;;;;0.30;100.00;97131.19;5088041;28;24995;-73
2023/01/25 06:48:29;;;;;;;24.00;17.90;;;;;;;0.47;100.00;97131.16;5093338;28;24430;-75
2023/01/25 06:50:57;;;;;;;20.67;18.15;;;;;;;0.45;100.00;97131.19;5094025;28;24986;-75
2023/01/25 06:53:25;;;;;;;23.40;18.17;;;;;;;0.39;100.00;97133.72;5081093;28;24462;-75
2023/01/25 06:55:57;;;;;;;25.45;19.05;;;;;;;0.49;100.00;97124.38;5091225;28;24515;-73
2023/01/25 06:58:26;;;;;;;21.27;17.20;;;;;;;0.54;100.00;97127.75;5079352;28;24453;-73
2023/01/25 07:00:52;;;;;;;19.75;17.00;;;;;;;0.52;100.00;97132.03;5102835;28;24796;-73
2023/01/25 07:03:19;;;;;;;22.90;17.17;;;;;;;0.61;100.00;97131.16;5086257;28;24434;-72
2023/01/25 07:05:45;;;;;;;20.08;16.98;;;;;;;0.54;100.00;97126.91;5096696;28;24984;-73
2023/01/25 07:08:12;;;;;;;25.13;19.45;;;;;;;0.48;100.00;97118.44;5089565;28;24520;-73
2023/01/25 07:10:38;;;;;;;27.25;19.10;;;;;;;0.38;100.00;97116.75;5085594;28;24434;-74
2023/01/25 07:13:04;;;;;;;25.10;20.53;;;;;;;0.54;100.00;97120.09;5091751;28;24441;-73
2023/01/25 07:15:32;;;;;;;22.75;19.52;;;;;;;0.46;100.00;97121.81;5091110;28;24442;-73
2023/01/25 07:17:59;;;;;;;23.95;19.60;;;;;;;0.44;100.00;97116.72;5093338;28;24430;-73
2023/01/25 07:20:25;;;;;;;24.85;17.95;;;;;;;0.41;100.00;97110.78;5093788;28;24432;-73
2023/01/25 07:22:52;;;;;;;20.20;17.45;;;;;;;0.50;100.00;97109.91;5095683;28;24441;-73
2023/01/25 07:25:18;;;;;;;20.15;17.10;;;;;;;0.55;100.00;97103.94;5095786;28;24430;-73
2023/01/25 07:27:44;;;;;;;23.03;18.60;;;;;;;0.56;100.00;97104.81;5090561;28;24426;-72
2023/01/25 07:30:12;;;;;;;22.60;19.20;;;;;;;0.52;100.00;97103.09;5100596;28;24460;-72
2023/01/25 07:32:39;;;;;;;23.27;19.43;;;;;;;0.44;100.00;97098.03;5103865;28;24974;-73
2023/01/25 07:35:07;;;;;;;25.13;20.95;;;;;;;0.31;100.00;97099.75;5105882;28;24965;-74
2023/01/25 07:37:33;;;;;;;23.38;17.92;;;;;;;0.17;100.00;97102.31;5100851;28;24452;-72
2023/01/25 07:40:00;;;;;;;26.00;19.75;;;;;;;0.41;100.00;97105.69;5097524;28;24986;-74
2023/01/25 07:42:26;;;;;;;23.33;19.55;;;;;;;0.50;100.00;97108.22;5105516;28;24446;-74
2023/01/25 07:44:53;;;;;;;23.90;18.40;;;;;;;0.44;100.00;97105.66;5101599;28;24434;-74
2023/01/25 07:47:19;;;;;;;24.70;21.03;;;;;;;0.54;100.00;97104.81;5099290;28;24433;-74
2023/01/25 07:49:47;;;;;;;23.67;19.52;;;;;;;0.31;100.00;97104.00;5105236;28;24425;-74
2023/01/25 07:52:13;;;;;;;21.85;18.20;;;;;;;0.45;100.00;97100.59;5098410;28;24435;-74
2023/01/25 07:54:40;;;;;;;21.85;18.63;;;;;;;0.30;100.00;97097.19;5102474;28;24437;-73
2023/01/25 07:57:06;;;;;;;23.85;19.45;;;;;;;0.29;100.00;97098.06;5087300;28;24462;-74
2023/01/25 07:59:32;;;;;;;22.80;19.73;;;;;;;0.24;100.00;97092.97;5103978;28;24434;-75
2023/01/25 08:01:59;;;;;;;20.80;18.00;;;;;;;0.39;100.00;97095.50;5102666;28;24440;-73
2023/01/25 08:04:25;;;;;;;23.27;18.42;;;;;;;0.27;100.00;97098.06;5096875;28;24994;-74
2023/01/25 08:06:53;;;;;;;20.40;17.75;;;;;;;0.15;100.00;97096.38;5100428;28;24994;-73
2023/01/25 08:09:20;;;;;;;20.92;17.92;;;;;;;0.13;100.00;97092.13;5090822;28;24980;-72
2023/01/25 08:11:48;;;;;;;17.73;15.90;;;;;;;0.20;100.00;97094.66;5105129;28;24442;-73
2023/01/25 08:14:14;;;;;;;18.02;15.77;;;;;;;0.09;100.00;97098.91;5100779;28;24442;-73
2023/01/25 08:16:41;;;;;;;16.73;15.02;;;;;;;0.48;100.00;97095.50;5101652;28;24451;-73
2023/01/25 08:19:09;;;;;;;18.17;15.35;;;;;;;0.65;100.00;97090.34;5100017;28;24434;-73
2023/01/25 08:21:35;;;;;;;17.23;15.23;;;;;;;0.58;100.00;97087.81;5091157;28;24487;-74
2023/01/25 08:24:06;;;;;;;18.50;16.00;;;;;;;0.46;100.00;97097.19;5103499;28;24442;-73
2023/01/25 08:26:33;;;;;;;23.05;17.13;;;;;;;0.38;100.00;97096.34;5106113;28;24820;-73
2023/01/25 08:28:59;;;;;;;17.27;15.32;;;;;;;0.19;100.00;97094.69;5103975;28;24441;-75
2023/01/25 08:31:28;;;;;;;22.38;15.85;;;;;;;0.07;100.00;97102.31;5103412;28;24442;-73
2023/01/25 08:33:54;;;;;;;21.85;15.93;;;;;;;0.26;100.00;97110.78;5091906;28;24433;-73
2023/01/25 08:36:22;;;;;;;18.80;14.80;;;;;;;0.42;100.00;97107.38;5100823;28;24457;-73
2023/01/25 08:38:54;;;;;;;19.97;15.37;;;;;;;0.59;100.00;97110.72;5097988;28;24426;-74
2023/01/25 08:41:22;;;;;;;19.98;16.42;;;;;;;0.61;100.00;97109.03;5105761;28;24433;-72
2023/01/25 08:43:49;;;;;;;15.93;14.32;;;;;;;0.29;100.00;97098.91;5097727;28;24442;-73
2023/01/25 08:46:17;;;;;;;20.02;14.30;;;;;;;0.22;100.00;97095.53;5097287;28;24437;-74
2023/01/25 08:48:43;;;;;;;19.55;14.52;;;;;;;0.13;100.00;97087.88;5100946;28;24437;-73
2023/01/25 08:51:12;;;;;;;17.33;14.32;;;;;;;0.60;100.00;97083.56;5091913;28;24430;-73
2023/01/25 08:53:39;;;;;;;16.48;14.02;;;;;;;0.29;100.00;97087.84;5085551;28;24433;-74
2023/01/25 08:56:07;;;;;;;18.60;15.15;;;;;;;0.06;100.00;97081.09;5099451;28;24430;-73
2023/01/25 08:58:37;;;;;;;19.23;16.45;;;;;;;0.36;100.00;97082.75;5096883;28;24441;-74
2023/01/25 09:01:05;;;;;;;17.60;14.93;;;;;;;0.18;100.00;97078.53;5100402;28;24429;-73
2023/01/25 09:03:35;;;;;;;21.33;15.50;;;;;;;0.35;100.00;97075.13;5099311;28;24454;-74
2023/01/25 09:06:01;;;;;;;21.45;16.05;;;;;;;0.37;100.00;97073.41;5096315;28;24437;-74
2023/01/25 09:08:28;;;;;;;19.85;15.80;;;;;;;0.58;100.00;97073.34;5094857;28;24975;-76
2023/01/25 09:10:54;;;;;;;19.90;15.50;;;;;;;0.50;100.00;97064.88;5083531;28;24434;-72
2023/01/25 09:13:20;;;;;;;17.88;14.57;;;;;;;0.40;100.00;97073.41;5099400;28;24471;-74
2023/01/25 09:15:48;;;;;;;16.15;13.95;;;;;;;0.57;100.00;97073.38;5093394;28;24441;-74
2023/01/25 09:18:15;;;;;;;15.60;13.90;;;;;;;0.51;100.00;97068.28;5103693;28;24446;-74
2023/01/25 09:20:41;;;;;;;16.83;14.45;;;;;;;0.36;100.00;97067.47;5096914;28;24445;-74
2023/01/25 09:23:08;;;;;;;19.08;15.68;;;;;;;0.66;100.00;97063.97;5095671;28;24438;-71
2023/01/25 09:25:34;;;;;;;18.17;14.77;;;;;;;0.54;100.00;97058.09;5086762;28;24975;-73
2023/01/25 09:28:10;;;;;;;18.98;15.68;;;;;;;0.76;100.00;97057.16;5088264;28;24426;-73
2023/01/25 09:30:38;;;;;;;20.92;17.00;;;;;;;0.71;100.00;97057.19;5096725;28;25019;-72
2023/01/25 09:33:05;;;;;;;21.97;16.90;;;;;;;0.62;100.00;97054.63;5087765;28;24461;-73
2023/01/25 09:35:32;;;;;;;19.85;16.70;;;;;;;0.44;100.00;97057.25;5101432;28;24434;-73
2023/01/25 09:37:59;;;;;;;18.85;16.77;;;;;;;0.15;100.00;97058.16;5097373;28;24449;-73
2023/01/25 09:40:35;;;;;;;20.17;16.70;;;;;;;0.35;100.00;97064.94;5091163;28;24431;-72
2023/01/25 09:43:06;;;;;;;20.25;17.73;;;;;;;0.29;100.00;97059.81;5090268;28;24986;-72
2023/01/25 09:45:34;;;;;;;20.00;17.35;;;;;;;0.22;100.00;97059.84;5098058;28;24438;-74
2023/01/25 09:48:13;;;;;;;22.20;18.42;;;;;;;0.45;100.00;97057.25;5103458;28;24838;-73
2023/01/25 09:50:59;;;;;;;21.85;16.80;;;;;;;0.43;100.00;97064.03;5102961;28;24888;-74
2023/01/25 09:53:33;;;;;;;21.42;16.48;;;;;;;0.38;100.00;97072.56;5093786;28;24457;-73
2023/01/25 09:56:04;;;;;;;17.55;15.43;;;;;;;0.42;100.00;97064.91;5093884;28;24909;-73
2023/01/25 09:58:38;;;;;;;20.83;16.93;;;;;;;0.21;100.00;97064.94;5086855;28;24457;-74
2023/01/25 10:01:23;;;;;;;24.90;17.23;;;;;;;0.16;100.00;97069.19;5105587;28;24438;-72
2023/01/25 10:03:55;;;;;;;20.65;16.98;;;;;;;0.30;100.00;97066.63;5094243;28;24453;-71
2023/01/25 10:06:27;;;;;;;20.83;17.52;;;;;;;0.44;100.00;97062.34;5102078;28;24956;-71
2023/01/25 10:09:01;;;;;;;21.90;17.13;;;;;;;0.38;100.00;97062.38;5094510;28;24430;-71
2023/01/25 10:11:30;;;;;;;18.83;16.88;;;;;;;0.41;100.00;97054.72;5100537;28;24530;-70
2023/01/25 10:13:58;;;;;;;21.77;16.17;;;;;;;0.30;100.00;97061.50;5099014;28;24438;-71
2023/01/25 10:16:30;;;;;;;18.10;16.20;;;;;;;0.42;100.00;97053.88;5098951;28;24524;-71
2023/01/25 10:19:10;;;;;;;18.90;15.40;;;;;;;0.19;100.00;97051.38;5093359;28;24465;-71
2023/01/25 10:21:41;;;;;;;16.98;14.95;;;;;;;-0.07;100.00;97056.50;5090953;28;24441;-71
2023/01/25 10:24:23;;;;;;;15.50;13.85;;;;;;;0.12;100.00;97049.69;5099504;28;24461;-71
2023/01/25 10:26:55;;;;;;;19.77;14.43;;;;;;;-0.05;100.00;97047.13;5098821;28;24437;-71
2023/01/25 10:29:25;;;;;;;16.58;14.63;;;;;;;-0.01;100.00;97051.38;5092177;28;24556;-70
2023/01/25 10:31:53;;;;;;;15.40;13.80;;;;;;;-0.06;100.00;97043.75;5100253;28;24440;-71
2023/01/25 10:34:24;;;;;;;18.10;14.60;;;;;;;0.05;100.00;97037.81;5102780;28;24453;-71
2023/01/25 10:36:54;;;;;;;14.65;13.18;;;;;;;0.06;100.00;97049.69;5094824;28;24445;-71
2023/01/25 10:39:21;;;;;;;15.50;13.40;;;;;;;0.02;100.00;97041.19;5098912;28;24433;-71
2023/01/25 10:41:54;;;;;;;14.85;13.25;;;;;;;-0.02;100.00;97034.41;5098777;28;25053;-70
2023/01/25 10:44:22;;;;;;;18.33;14.60;;;;;;;0.20;100.00;97025.03;5095700;28;24647;-70
2023/01/25 10:46:55;;;;;;;18.35;14.00;;;;;;;0.02;100.00;97028.47;5092220;28;24441;-71
2023/01/25 10:49:27;;;;;;;25.07;13.80;;;;;;;-0.01;100.00;97024.19;5096646;28;24436;-70
2023/01/25 10:51:54;;;;;;;16.88;14.57;;;;;;;0.12;100.00;97008.91;5092339;28;24499;-72
2023/01/25 10:54:22;;;;;;;16.35;14.65;;;;;;;0.42;100.00;97015.63;5100116;28;24445;-72
2023/01/25 10:56:49;;;;;;;17.05;15.02;;;;;;;0.58;100.00;97011.31;5088801;28;24460;-72
2023/01/25 10:59:20;;;;;;;17.75;14.98;;;;;;;0.67;100.00;97004.50;5087948;28;24434;-72
2023/01/25 11:01:47;;;;;;;18.35;15.57;;;;;;;0.49;100.00;97012.22;5092721;28;24457;-71
2023/01/25 11:04:33;;;;;;;20.75;14.93;;;;;;;0.50;100.00;97007.97;5094270;28;24438;-71
2023/01/25 11:07:01;;;;;;;17.42;14.77;;;;;;;0.26;100.00;97004.66;5087718;28;24553;-71
2023/01/25 11:09:33;;;;;;;18.45;14.88;;;;;;;0.44;100.00;96998.63;5089345;28;24496;-71
2023/01/25 11:12:02;;;;;;;17.63;15.00;;;;;;;0.16;100.00;96993.63;5089585;28;24516;-71
2023/01/25 11:14:30;;;;;;;16.42;14.00;;;;;;;0.05;100.00;96987.69;5093997;28;25215;-71
2023/01/25 11:16:58;;;;;;;15.77;14.10;;;;;;;-0.12;100.00;96994.50;5094476;28;24546;-71
2023/01/25 11:19:28;;;;;;;15.20;13.55;;;;;;;0.07;100.00;96985.97;5094523;28;24437;-71
2023/01/25 11:21:57;;;;;;;15.88;12.70;;;;;;;0.05;100.00;96986.84;5101231;28;24465;-71